createdAt,value
2023-01-19T07:55:22.430Z,3.57
2023-01-19T07:57:56.796Z,3.69
2023-01-19T08:00:25.562Z,3.71
2023-01-19T08:02:59.317Z,3.70
2023-01-19T08:05:31.675Z,3.69
2023-01-19T08:08:06.937Z,3.68
2023-01-19T08:10:37.486Z,3.68
2023-01-19T08:13:04.907Z,3.68
2023-01-19T08:15:43.544Z,3.69
2023-01-19T08:18:15.373Z,3.73
2023-01-19T08:20:47.151Z,3.82
2023-01-19T08:23:14.176Z,3.90
2023-01-19T08:25:44.356Z,3.96
2023-01-19T08:28:18.223Z,3.99
2023-01-19T08:37:06.147Z,4.01
2023-01-19T08:39:40.266Z,3.97
2023-01-19T08:42:07.559Z,3.95
2023-01-19T08:44:43.740Z,3.92
2023-01-19T08:47:17.727Z,3.91
2023-01-19T08:49:46.760Z,3.91
2023-01-19T08:52:16.073Z,3.92
2023-01-19T08:54:44.251Z,3.96
2023-01-19T08:57:15.078Z,4.01
2023-01-19T08:59:43.729Z,4.05
2023-01-19T09:02:12.907Z,4.10
2023-01-19T09:04:40.631Z,4.12
2023-01-19T09:07:11.741Z,4.13
2023-01-19T09:09:44.998Z,4.17
2023-01-19T09:12:13.606Z,4.22
2023-01-19T09:26:04.733Z,4.80
2023-01-19T09:28:32.845Z,4.92
2023-01-19T09:31:05.008Z,4.91
2023-01-19T09:33:34.383Z,4.91
2023-01-19T09:36:02.931Z,4.93
2023-01-19T09:38:33.720Z,4.91
2023-01-19T09:41:04.568Z,4.90
2023-01-19T09:43:50.453Z,4.90
2023-01-19T09:46:33.235Z,4.91
2023-01-19T09:49:13.635Z,4.89
2023-01-19T09:51:44.771Z,4.95
2023-01-19T09:54:43.597Z,5.01
2023-01-19T09:57:16.048Z,5.08
2023-01-19T09:59:59.812Z,5.16
2023-01-19T10:02:40.013Z,5.23
2023-01-19T10:05:28.852Z,5.26
2023-01-19T10:08:30.041Z,5.30
2023-01-19T10:11:00.517Z,5.34
2023-01-19T10:13:48.610Z,5.35
2023-01-19T10:16:26.443Z,5.35
2023-01-19T10:18:58.444Z,5.42
2023-01-19T10:21:45.491Z,5.49
2023-01-19T10:24:29.582Z,5.55
2023-01-19T10:26:59.695Z,5.59
2023-01-19T10:29:36.732Z,5.62
2023-01-19T10:32:10.811Z,5.63
2023-01-19T10:41:24.379Z,5.65
2023-01-19T10:44:02.947Z,5.62
2023-01-19T10:46:45.025Z,5.60
2023-01-19T10:49:38.183Z,5.61
2023-01-19T10:52:45.590Z,5.69
2023-01-19T10:55:34.313Z,5.72
2023-01-19T10:58:02.667Z,5.74
2023-01-19T11:00:41.683Z,5.76
2023-01-19T11:03:47.637Z,5.76
2023-01-19T11:06:21.745Z,5.76
2023-01-19T11:09:11.368Z,5.78
2023-01-19T11:11:51.191Z,5.81
2023-01-19T11:14:26.522Z,5.87
2023-01-19T11:17:00.611Z,5.90
2023-01-19T11:19:38.491Z,5.94
2023-01-19T11:22:22.326Z,5.97
2023-01-19T11:25:01.736Z,5.97
2023-01-19T11:27:31.817Z,5.98
2023-01-19T11:30:41.867Z,6.02
2023-01-19T11:33:41.262Z,6.05
2023-01-19T11:36:20.532Z,6.09
2023-01-19T11:38:50.252Z,6.13
2023-01-19T11:41:38.410Z,6.16
2023-01-19T11:44:16.288Z,6.21
2023-01-19T11:46:51.534Z,6.25
2023-01-19T11:49:36.226Z,6.27
2023-01-19T11:52:26.277Z,6.30
2023-01-19T11:55:04.615Z,6.31
2023-01-19T11:57:34.270Z,6.35
2023-01-19T12:00:05.466Z,6.39
2023-01-19T12:02:54.735Z,6.43
2023-01-19T12:05:31.732Z,6.47
2023-01-19T12:08:05.497Z,6.51
2023-01-19T12:10:38.164Z,6.54
2023-01-19T12:13:08.138Z,6.58
2023-01-19T16:24:49.067Z,8.02
2023-01-19T16:27:22.376Z,8.15
2023-01-19T16:29:50.849Z,8.19
2023-01-19T16:32:18.268Z,8.22
2023-01-19T16:37:53.370Z,8.25
2023-01-19T16:40:55.141Z,8.27
2023-01-19T16:43:28.135Z,8.28
2023-01-19T16:46:23.658Z,8.28
2023-01-19T16:48:52.334Z,8.27
2023-01-19T16:54:11.531Z,8.30
2023-01-19T16:56:42.637Z,8.30
2023-01-19T16:59:16.574Z,8.32
2023-01-19T17:01:46.486Z,8.34
2023-01-19T17:04:16.042Z,8.36
2023-01-19T17:06:48.236Z,8.38
2023-01-19T17:09:15.300Z,8.39
2023-01-19T17:11:46.208Z,8.38
2023-01-19T17:14:32.605Z,8.36
2023-01-19T17:17:10.337Z,8.34
2023-01-19T17:19:58.663Z,8.34
2023-01-19T17:22:26.767Z,8.35
2023-01-19T17:24:54.678Z,8.36
2023-01-19T17:27:23.300Z,8.35
2023-01-19T17:29:55.058Z,8.33
2023-01-19T17:32:56.941Z,8.31
2023-01-19T17:38:21.524Z,8.31
2023-01-19T17:40:48.845Z,8.31
2023-01-19T17:43:17.946Z,8.33
2023-01-19T17:46:04.813Z,8.36
2023-01-19T17:48:35.300Z,8.39
2023-01-19T17:51:06.415Z,8.40
2023-01-19T17:53:36.288Z,8.41
2023-01-19T17:56:09.349Z,8.43
2023-01-19T17:58:38.420Z,8.42
2023-01-19T18:01:12.039Z,8.42
2023-01-19T18:03:41.683Z,8.43
2023-01-19T18:06:08.823Z,8.42
2023-01-19T18:08:42.920Z,8.41
2023-01-19T18:11:10.702Z,8.41
2023-01-19T18:13:38.161Z,8.39
2023-01-19T18:16:09.963Z,8.36
2023-01-19T18:18:37.505Z,8.32
2023-01-19T18:21:06.937Z,8.28
2023-01-19T18:23:34.045Z,8.27
2023-01-19T18:26:03.933Z,8.24
2023-01-19T18:28:32.173Z,8.22
2023-01-19T18:31:09.263Z,8.20
2023-01-19T18:33:38.278Z,8.18
2023-01-19T18:36:07.799Z,8.15
2023-01-19T18:38:40.767Z,8.13
2023-01-19T18:41:19.162Z,8.11
2023-01-19T18:43:48.727Z,8.10
2023-01-19T18:46:18.793Z,8.08
2023-01-19T18:48:50.431Z,8.06
2023-01-19T18:51:20.053Z,8.05
2023-01-19T18:53:48.448Z,8.04
2023-01-19T18:56:16.500Z,8.02
2023-01-19T18:58:45.952Z,8.02
2023-01-19T19:01:36.302Z,8.01
2023-01-19T19:04:05.954Z,7.99
2023-01-19T19:06:44.626Z,7.97
2023-01-19T19:09:12.077Z,7.94
2023-01-19T19:11:39.291Z,7.93
2023-01-19T19:14:09.468Z,7.92
2023-01-19T19:16:40.778Z,7.89
2023-01-19T19:19:14.251Z,7.87
2023-01-19T19:21:45.234Z,7.84
2023-01-19T19:24:14.945Z,7.82
2023-01-19T19:26:49.995Z,7.80
2023-01-19T19:29:44.159Z,7.79
2023-01-19T19:32:31.321Z,7.75
2023-01-19T19:35:36.740Z,7.71
2023-01-19T19:38:49.304Z,7.67
2023-01-19T19:41:27.803Z,7.63
2023-01-19T19:44:09.333Z,7.60
2023-01-19T19:46:40.328Z,7.58
2023-01-19T19:49:10.384Z,7.58
2023-01-19T19:51:42.583Z,7.58
2023-01-19T19:57:39.173Z,7.55
2023-01-19T20:00:26.542Z,7.55
2023-01-19T22:28:46.833Z,7.28
2023-01-19T22:31:16.000Z,7.39
2023-01-19T22:33:43.387Z,7.41
2023-01-19T22:36:31.850Z,7.44
2023-01-19T22:39:00.456Z,7.48
2023-01-19T22:41:35.651Z,7.51
2023-01-19T22:44:07.708Z,7.51
2023-01-19T22:46:37.284Z,7.54
2023-01-19T22:49:05.412Z,7.56
2023-01-19T22:51:33.156Z,7.58
2023-01-19T22:54:00.624Z,7.62
2023-01-19T22:56:30.003Z,7.64
2023-01-19T22:58:57.946Z,7.64
2023-01-19T23:01:29.194Z,7.65
2023-01-19T23:03:56.594Z,7.67
2023-01-19T23:06:25.539Z,7.68
2023-01-19T23:08:55.179Z,7.69
2023-01-19T23:11:42.712Z,7.72
2023-01-19T23:21:38.723Z,7.76
2023-01-19T23:24:06.248Z,7.76
2023-01-19T23:33:22.602Z,7.84
2023-01-19T23:35:52.720Z,7.81
2023-01-19T23:38:22.394Z,7.80
2023-01-19T23:40:52.353Z,7.80
2023-01-19T23:43:19.662Z,7.80
2023-01-19T23:45:46.809Z,7.79
2023-01-19T23:48:13.944Z,7.78
2023-01-19T23:50:41.214Z,7.78
2023-01-19T23:53:08.493Z,7.77
2023-01-19T23:55:37.580Z,7.78
2023-01-19T23:58:08.191Z,7.80
